Time;durP1;ratioP1;P1;durP2;ratioP2;P2;SDS_P1;SDS_P2;PMS_P1;PMS_P2;Temp;Humidity;BMP_temperature;BMP_pressure;BME280_temperature;BME280_humidity;BME280_pressure;Samples;Min_cycle;Max_cycle;Signal;HPM_P1;HPM_P2
2022/06/02 00:01:40;;;;;;;4.22;3.70;;;;;;;;;;5061234;28;20035;-57
2022/06/02 00:04:08;;;;;;;4.13;3.60;;;;;;;;;;5061682;28;20046;-57
2022/06/02 00:06:59;;;;;;;4.57;3.53;;;;;;;;;;5062074;28;20032;-57
2022/06/02 00:09:34;;;;;;;4.97;3.63;;;;;;;;;;5046628;28;20107;-57
2022/06/02 00:12:07;;;;;;;4.63;3.95;;;;;;;;;;5059364;28;20020;-57
2022/06/02 00:14:41;;;;;;;6.28;4.18;;;;;;;;;;5058771;28;20025;-57
2022/06/02 00:17:23;;;;;;;5.75;4.30;;;;;;;;;;5063381;28;20032;-57
2022/06/02 00:20:05;;;;;;;5.25;4.05;;;;;;;;;;5060467;28;20065;-57
2022/06/02 00:22:39;;;;;;;4.70;3.88;;;;;;;;;;5061920;28;20161;-57
2022/06/02 00:25:19;;;;;;;5.32;4.10;;;;;;;;;;5062186;28;20571;-57
2022/06/02 00:28:03;;;;;;;4.85;3.70;;;;;;;;;;5062541;28;20032;-57
2022/06/02 00:30:44;;;;;;;5.68;4.18;;;;;;;;;;5063224;28;20412;-58
2022/06/02 00:33:12;;;;;;;4.00;3.60;;;;;;;;;;5061623;28;20135;-58
2022/06/02 00:35:53;;;;;;;6.88;3.63;;;;;;;;;;5061693;28;20373;-58
2022/06/02 00:38:31;;;;;;;8.38;3.60;;;;;;;;;;5067077;28;20040;-57
2022/06/02 00:41:15;;;;;;;5.32;3.58;;;;;;;;;;5061959;28;20028;-58
2022/06/02 00:44:09;;;;;;;4.38;3.60;;;;;;;;;;5063110;28;20074;-57
2022/06/02 00:46:35;;;;;;;4.20;3.60;;;;;;;;;;5063869;28;20025;-57
2022/06/02 00:49:09;;;;;;;4.20;3.80;;;;;;;;;;5062010;28;20039;-57
2022/06/02 00:51:40;;;;;;;3.97;3.40;;;;;;;;;;5063252;28;20039;-57
2022/06/02 00:57:43;;;;;;;4.68;3.85;;;;;;;;;;5063198;28;20031;-58
2022/06/02 01:00:14;;;;;;;3.85;3.33;;;;;;;;;;5063145;28;20024;-58
2022/06/02 01:02:55;;;;;;;4.95;3.65;;;;;;;;;;5061903;28;20032;-57
2022/06/02 01:05:39;;;;;;;5.35;3.70;;;;;;;;;;5060684;28;20099;-58
2022/06/02 01:08:20;;;;;;;6.70;4.30;;;;;;;;;;5062781;28;20123;-58
2022/06/02 01:11:16;;;;;;;6.05;3.72;;;;;;;;;;5060743;28;20479;-57
2022/06/02 01:14:04;;;;;;;5.15;3.67;;;;;;;;;;5062308;28;20472;-57
2022/06/02 01:16:38;;;;;;;5.18;4.30;;;;;;;;;;5064308;28;20032;-57
2022/06/02 01:19:09;;;;;;;4.97;3.88;;;;;;;;;;5062587;28;20020;-57
2022/06/02 01:21:37;;;;;;;7.07;3.47;;;;;;;;;;5063827;28;20028;-57
2022/06/02 01:24:22;;;;;;;4.40;3.38;;;;;;;;;;5060483;28;20032;-58
2022/06/02 01:27:11;;;;;;;5.57;3.80;;;;;;;;;;5062357;28;20032;-57
2022/06/02 01:29:55;;;;;;;5.47;3.22;;;;;;;;;;5060898;28;20027;-57
2022/06/02 01:32:33;;;;;;;4.13;3.35;;;;;;;;;;5061804;28;20028;-58
2022/06/02 01:35:19;;;;;;;6.32;3.65;;;;;;;;;;5058933;28;20078;-58
2022/06/02 01:37:56;;;;;;;5.70;3.40;;;;;;;;;;5063831;28;20047;-57
2022/06/02 01:40:36;;;;;;;5.68;3.60;;;;;;;;;;5060567;28;20029;-58
2022/06/02 01:43:13;;;;;;;3.88;3.45;;;;;;;;;;5060832;28;20391;-57
2022/06/02 01:45:59;;;;;;;7.07;3.60;;;;;;;;;;5061399;28;20387;-58
2022/06/02 01:48:42;;;;;;;6.43;3.83;;;;;;;;;;5060466;28;20037;-57
2022/06/02 01:51:34;;;;;;;5.43;3.58;;;;;;;;;;5062066;28;20036;-57
2022/06/02 01:54:06;;;;;;;6.25;3.45;;;;;;;;;;5060794;28;20029;-57
2022/06/02 01:57:02;;;;;;;5.13;3.92;;;;;;;;;;5060620;28;20060;-57
2022/06/02 02:00:06;;;;;;;5.57;3.90;;;;;;;;;;5059409;28;20024;-58
2022/06/02 02:02:32;;;;;;;6.90;3.95;;;;;;;;;;5062223;28;20082;-57
2022/06/02 02:05:09;;;;;;;5.93;3.83;;;;;;;;;;5060981;28;20020;-57
2022/06/02 02:07:59;;;;;;;4.18;3.72;;;;;;;;;;5061417;28;20055;-58
2022/06/02 02:10:29;;;;;;;8.80;4.05;;;;;;;;;;5063446;28;20386;-57
2022/06/02 02:13:39;;;;;;;5.90;3.40;;;;;;;;;;5060296;28;20028;-58
2022/06/02 02:16:20;;;;;;;10.00;3.80;;;;;;;;;;5058356;28;20040;-57
2022/06/02 02:19:07;;;;;;;6.25;4.15;;;;;;;;;;5062270;28;20017;-57
2022/06/02 02:21:33;;;;;;;5.80;3.60;;;;;;;;;;5063868;28;20511;-57
2022/06/02 02:24:14;;;;;;;3.90;3.50;;;;;;;;;;5061549;28;20150;-57
2022/06/02 02:26:56;;;;;;;5.95;3.70;;;;;;;;;;5064367;28;20403;-58
2022/06/02 02:29:47;;;;;;;4.63;3.70;;;;;;;;;;5067983;28;20033;-58
2022/06/02 02:32:19;;;;;;;5.97;3.55;;;;;;;;;;5057800;28;20433;-57
2022/06/02 02:35:11;;;;;;;4.43;3.40;;;;;;;;;;5059426;28;20037;-57
2022/06/02 02:37:47;;;;;;;4.07;3.20;;;;;;;;;;5067032;28;20468;-57
2022/06/02 02:40:15;;;;;;;4.80;3.22;;;;;;;;;;5067761;28;20024;-57
2022/06/02 02:42:51;;;;;;;4.10;3.30;;;;;;;;;;5068168;28;20484;-57
2022/06/02 02:45:28;;;;;;;6.13;3.50;;;;;;;;;;5069486;28;20039;-58
2022/06/02 02:47:53;;;;;;;5.63;3.60;;;;;;;;;;5070683;28;20032;-57
2022/06/02 02:50:28;;;;;;;4.53;3.75;;;;;;;;;;5065832;28;20203;-57
2022/06/02 02:53:24;;;;;;;5.43;3.78;;;;;;;;;;5067529;28;20036;-57
2022/06/02 02:56:12;;;;;;;5.07;3.50;;;;;;;;;;5058485;28;20036;-58
2022/06/02 02:58:50;;;;;;;4.50;3.45;;;;;;;;;;5069930;28;20511;-58
2022/06/02 03:01:40;;;;;;;4.40;3.15;;;;;;;;;;5067953;28;20471;-57
2022/06/02 03:04:23;;;;;;;5.45;3.83;;;;;;;;;;5040255;28;20072;-57
2022/06/02 03:06:54;;;;;;;4.38;3.40;;;;;;;;;;5066266;28;20024;-57
2022/06/02 03:09:52;;;;;;;4.63;3.75;;;;;;;;;;5062809;28;20456;-57
2022/06/02 03:12:48;;;;;;;5.47;3.50;;;;;;;;;;5061612;28;20487;-57
2022/06/02 03:15:42;;;;;;;6.45;3.47;;;;;;;;;;5058455;28;20104;-57
2022/06/02 03:18:29;;;;;;;6.13;3.30;;;;;;;;;;5065976;28;20028;-57
2022/06/02 03:21:02;;;;;;;7.05;3.72;;;;;;;;;;5059827;28;20059;-57
2022/06/02 03:23:52;;;;;;;7.38;3.80;;;;;;;;;;5067793;28;20024;-57
2022/06/02 03:26:20;;;;;;;9.25;3.97;;;;;;;;;;5069686;28;20024;-57
2022/06/02 03:28:52;;;;;;;6.85;3.78;;;;;;;;;;5059830;28;20518;-57
2022/06/02 03:31:50;;;;;;;3.88;3.47;;;;;;;;;;5062367;28;20029;-57
2022/06/02 03:34:18;;;;;;;4.13;3.20;;;;;;;;;;5067971;28;20024;-60
2022/06/02 03:37:06;;;;;;;6.57;4.50;;;;;;;;;;5069580;28;20131;-59
2022/06/02 03:40:09;;;;;;;7.03;4.25;;;;;;;;;;5070731;28;20555;-59
2022/06/02 03:42:57;;;;;;;4.22;3.83;;;;;;;;;;5066755;28;20036;-60
2022/06/02 03:45:53;;;;;;;6.78;3.78;;;;;;;;;;5068922;28;20036;-58
2022/06/02 03:48:18;;;;;;;7.32;4.60;;;;;;;;;;5066524;28;20035;-58
2022/06/02 03:51:01;;;;;;;7.25;5.25;;;;;;;;;;5068592;28;20028;-59
2022/06/02 03:53:49;;;;;;;8.45;4.50;;;;;;;;;;5067432;28;20021;-58
2022/06/02 03:56:33;;;;;;;4.85;4.43;;;;;;;;;;5062809;28;20041;-58
2022/06/02 03:59:19;;;;;;;6.20;3.58;;;;;;;;;;5065353;28;20024;-59
2022/06/02 04:01:58;;;;;;;7.93;4.00;;;;;;;;;;5069420;28;20028;-59
2022/06/02 04:04:50;;;;;;;4.40;3.42;;;;;;;;;;5065634;28;20065;-61
2022/06/02 04:07:34;;;;;;;4.50;3.55;;;;;;;;;;5049368;28;20115;-59
2022/06/02 04:10:23;;;;;;;4.40;3.50;;;;;;;;;;5060266;28;20035;-59
2022/06/02 04:13:39;;;;;;;8.10;4.82;;;;;;;;;;5063441;28;20028;-59
2022/06/02 04:16:22;;;;;;;4.38;3.40;;;;;;;;;;5037535;28;20494;-59
2022/06/02 04:22:04;;;;;;;7.70;4.00;;;;;;;;;;5062245;28;20526;-59
2022/06/02 04:25:20;;;;;;;5.35;3.88;;;;;;;;;;5061703;28;20037;-59
2022/06/02 04:27:52;;;;;;;13.75;6.93;;;;;;;;;;5042334;28;20127;-59
2022/06/02 04:30:55;;;;;;;7.28;4.68;;;;;;;;;;5059108;28;20029;-59
2022/06/02 04:33:23;;;;;;;5.47;3.97;;;;;;;;;;5060593;28;20020;-59
2022/06/02 04:36:10;;;;;;;6.78;3.28;;;;;;;;;;5068887;28;20028;-59
2022/06/02 04:38:45;;;;;;;4.35;3.28;;;;;;;;;;5070722;28;20048;-59
2022/06/02 04:41:20;;;;;;;5.22;3.47;;;;;;;;;;5069406;28;20024;-59
2022/06/02 04:44:03;;;;;;;4.90;3.38;;;;;;;;;;5067982;28;20028;-59
2022/06/02 04:46:34;;;;;;;7.03;4.20;;;;;;;;;;5068473;28;20039;-59
2022/06/02 04:49:00;;;;;;;6.38;3.88;;;;;;;;;;5070128;28;20028;-58
2022/06/02 04:51:44;;;;;;;7.47;3.95;;;;;;;;;;5063231;28;20495;-60
2022/06/02 04:54:09;;;;;;;5.63;4.45;;;;;;;;;;5066971;28;20036;-59
2022/06/02 04:56:58;;;;;;;5.13;3.80;;;;;;;;;;5066270;28;20487;-59
2022/06/02 04:59:57;;;;;;;4.68;3.85;;;;;;;;;;5067371;28;20035;-59
2022/06/02 05:02:49;;;;;;;4.93;3.53;;;;;;;;;;5064885;28;20051;-59
2022/06/02 05:05:27;;;;;;;4.43;3.30;;;;;;;;;;5046388;28;20037;-59
2022/06/02 05:08:04;;;;;;;4.85;3.63;;;;;;;;;;5062080;28;20366;-58
2022/06/02 05:11:02;;;;;;;4.88;3.67;;;;;;;;;;5063001;28;20107;-58
2022/06/02 05:13:44;;;;;;;6.65;3.90;;;;;;;;;;5063248;28;20392;-59
2022/06/02 05:16:18;;;;;;;4.85;3.75;;;;;;;;;;5061827;28;20012;-59
2022/06/02 05:19:09;;;;;;;8.60;4.13;;;;;;;;;;5062138;28;20031;-59
2022/06/02 05:21:44;;;;;;;7.30;3.85;;;;;;;;;;5061065;28;20035;-58
2022/06/02 05:24:18;;;;;;;8.35;3.92;;;;;;;;;;5069150;28;20033;-58
2022/06/02 05:27:02;;;;;;;5.28;3.40;;;;;;;;;;5060797;28;20479;-57
2022/06/02 05:29:48;;;;;;;4.20;3.17;;;;;;;;;;5067469;28;20039;-58
2022/06/02 05:32:26;;;;;;;7.75;3.83;;;;;;;;;;5066506;28;20040;-58
2022/06/02 05:35:09;;;;;;;6.55;3.15;;;;;;;;;;5061794;28;20024;-59
2022/06/02 05:38:00;;;;;;;8.05;3.63;;;;;;;;;;5068065;28;20494;-60
2022/06/02 05:41:01;;;;;;;6.05;3.75;;;;;;;;;;5063799;28;20112;-60
2022/06/02 05:43:32;;;;;;;4.90;3.65;;;;;;;;;;5068340;28;20025;-59
2022/06/02 05:46:25;;;;;;;5.90;3.92;;;;;;;;;;5068642;28;20029;-58
2022/06/02 05:48:56;;;;;;;6.38;3.72;;;;;;;;;;5060563;28;20526;-59
2022/06/02 05:51:32;;;;;;;5.38;3.63;;;;;;;;;;5063594;28;20035;-59
2022/06/02 05:54:04;;;;;;;6.05;3.50;;;;;;;;;;5064029;28;20024;-59
2022/06/02 05:57:00;;;;;;;4.47;3.55;;;;;;;;;;5061490;28;20029;-59
2022/06/02 05:59:52;;;;;;;9.88;3.65;;;;;;;;;;5065279;28;20456;-58
2022/06/02 06:02:30;;;;;;;4.47;3.60;;;;;;;;;;5062958;28;20028;-59
2022/06/02 06:05:23;;;;;;;9.48;5.72;;;;;;;;;;5063609;28;20033;-59
2022/06/02 06:08:03;;;;;;;6.65;4.63;;;;;;;;;;5064009;28;20376;-58
2022/06/02 06:11:02;;;;;;;4.95;4.20;;;;;;;;;;5062750;28;20039;-59
2022/06/02 06:13:30;;;;;;;11.23;4.90;;;;;;;;;;5063366;28;20020;-58
2022/06/02 06:15:56;;;;;;;5.00;3.78;;;;;;;;;;5062057;28;20028;-59
2022/06/02 06:18:35;;;;;;;8.52;4.00;;;;;;;;;;5062986;28;20086;-58
2022/06/02 06:21:12;;;;;;;5.38;4.05;;;;;;;;;;5062797;28;20024;-59
2022/06/02 06:23:53;;;;;;;5.40;4.07;;;;;;;;;;5070723;28;20114;-58
2022/06/02 06:26:21;;;;;;;5.53;4.20;;;;;;;;;;5060303;28;20021;-58
2022/06/02 06:29:00;;;;;;;9.70;4.65;;;;;;;;;;5068437;28;20410;-58
2022/06/02 06:31:41;;;;;;;12.98;5.82;;;;;;;;;;5060638;28;20619;-58
2022/06/02 06:34:48;;;;;;;20.20;7.95;;;;;;;;;;5071643;28;20032;-58
2022/06/02 06:37:28;;;;;;;15.38;6.15;;;;;;;;;;5057229;28;20032;-58
2022/06/02 06:39:54;;;;;;;14.90;6.35;;;;;;;;;;5060396;28;20107;-59
2022/06/02 06:42:28;;;;;;;17.92;10.38;;;;;;;;;;5071498;28;20510;-58
2022/06/02 06:45:29;;;;;;;14.43;6.60;;;;;;;;;;5067453;28;20025;-60
2022/06/02 06:48:09;;;;;;;8.07;5.22;;;;;;;;;;5066310;28;20032;-58
2022/06/02 06:51:08;;;;;;;11.20;4.75;;;;;;;;;;5067949;28;20067;-59
2022/06/02 06:53:41;;;;;;;6.83;4.07;;;;;;;;;;5064733;28;20039;-59
2022/06/02 06:56:12;;;;;;;7.05;4.18;;;;;;;;;;5067685;28;20013;-59
2022/06/02 06:59:11;;;;;;;5.70;4.10;;;;;;;;;;5068449;28;20495;-60
2022/06/02 07:02:10;;;;;;;5.82;3.80;;;;;;;;;;5065026;28;20036;-60
2022/06/02 07:05:06;;;;;;;7.32;3.90;;;;;;;;;;5066031;28;20029;-59
2022/06/02 07:07:56;;;;;;;4.63;4.10;;;;;;;;;;5064682;28;20064;-59
2022/06/02 07:10:27;;;;;;;8.27;4.50;;;;;;;;;;5065990;28;20028;-59
2022/06/02 07:13:19;;;;;;;4.63;3.85;;;;;;;;;;5065943;28;20055;-59
2022/06/02 07:15:53;;;;;;;5.70;4.00;;;;;;;;;;5067041;28;20085;-59
2022/06/02 07:18:55;;;;;;;8.23;3.83;;;;;;;;;;5066209;28;20040;-59
2022/06/02 07:22:05;;;;;;;7.53;4.03;;;;;;;;;;5067693;28;20029;-60
2022/06/02 07:25:05;;;;;;;7.63;4.35;;;;;;;;;;5006575;28;20552;-60
2022/06/02 07:27:44;;;;;;;6.45;3.85;;;;;;;;;;5066801;28;20540;-59
2022/06/02 07:30:24;;;;;;;;;;;;;;;;;;5067107;28;20024;-59
2022/06/02 07:33:11;;;;;;;4.93;3.90;;;;;;;;;;5069867;28;19912;-59
2022/06/02 07:35:58;;;;;;;6.57;4.03;;;;;;;;;;5069655;28;20055;-58
2022/06/02 07:38:30;;;;;;;6.60;4.18;;;;;;;;;;5065951;28;20031;-58
2022/06/02 07:41:07;;;;;;;5.40;3.90;;;;;;;;;;5061056;28;20032;-58
2022/06/02 07:44:10;;;;;;;5.35;4.38;;;;;;;;;;5069792;28;20024;-59
2022/06/02 07:47:12;;;;;;;7.68;4.28;;;;;;;;;;5066447;28;20032;-59
2022/06/02 07:49:50;;;;;;;6.38;4.45;;;;;;;;;;5064291;28;20052;-59
2022/06/02 07:52:30;;;;;;;6.15;4.60;;;;;;;;;;5064471;28;20032;-59
2022/06/02 07:55:39;;;;;;;5.95;4.55;;;;;;;;;;5067421;28;20372;-59
2022/06/02 07:58:29;;;;;;;6.70;4.47;;;;;;;;;;5060441;28;20071;-58
2022/06/02 08:01:05;;;;;;;5.90;4.07;;;;;;;;;;5067357;28;20111;-58
2022/06/02 08:03:57;;;;;;;7.28;4.68;;;;;;;;;;5067272;28;20029;-58
2022/06/02 08:06:50;;;;;;;6.68;4.60;;;;;;;;;;5064062;28;20032;-58
2022/06/02 08:09:43;;;;;;;6.03;4.47;;;;;;;;;;5062932;28;20025;-58
2022/06/02 08:12:19;;;;;;;6.15;4.63;;;;;;;;;;5037869;28;20415;-58
2022/06/02 08:15:21;;;;;;;4.65;4.15;;;;;;;;;;5068863;28;20751;-58
2022/06/02 08:18:10;;;;;;;6.97;4.40;;;;;;;;;;5060616;28;20599;-58
2022/06/02 08:20:35;;;;;;;;;;;;;;;;;;5060890;28;20396;-58
2022/06/02 08:23:25;;;;;;;7.65;4.88;;;;;;;;;;5062232;28;19919;-58
2022/06/02 08:25:56;;;;;;;7.55;4.53;;;;;;;;;;5065995;28;20033;-58
2022/06/02 08:28:50;;;;;;;8.55;4.82;;;;;;;;;;5067137;28;20106;-58
2022/06/02 08:31:40;;;;;;;7.82;5.00;;;;;;;;;;5069392;28;20043;-58
2022/06/02 08:34:24;;;;;;;6.63;4.68;;;;;;;;;;5065527;28;20028;-58
2022/06/02 08:36:52;;;;;;;7.80;5.55;;;;;;;;;;5067793;28;20033;-58
2022/06/02 08:39:17;;;;;;;7.50;4.90;;;;;;;;;;5063076;28;20032;-58
2022/06/02 08:42:16;;;;;;;5.82;4.43;;;;;;;;;;5065779;28;20165;-58
2022/06/02 08:45:00;;;;;;;7.53;4.20;;;;;;;;;;5066479;28;20039;-58
2022/06/02 08:47:44;;;;;;;6.88;4.97;;;;;;;;;;5067242;28;20399;-58
2022/06/02 08:50:27;;;;;;;8.30;4.13;;;;;;;;;;5064184;28;20426;-58
2022/06/02 08:53:11;;;;;;;6.28;4.20;;;;;;;;;;5067227;28;20024;-57
2022/06/02 08:56:15;;;;;;;10.00;4.15;;;;;;;;;;5061884;28;20036;-56
2022/06/02 08:59:07;;;;;;;5.15;4.10;;;;;;;;;;5061922;28;20028;-57
2022/06/02 09:01:41;;;;;;;5.78;4.20;;;;;;;;;;5066055;28;20064;-57
2022/06/02 09:04:36;;;;;;;7.97;4.53;;;;;;;;;;5063774;28;20721;-57
2022/06/02 09:07:23;;;;;;;4.78;3.78;;;;;;;;;;5063225;28;20143;-57
2022/06/02 09:10:07;;;;;;;4.85;4.00;;;;;;;;;;5063400;28;20028;-57
2022/06/02 09:12:50;;;;;;;5.90;4.15;;;;;;;;;;5062476;28;20058;-57
2022/06/02 09:15:36;;;;;;;8.05;4.30;;;;;;;;;;5063406;28;20159;-57
2022/06/02 09:18:17;;;;;;;6.65;4.15;;;;;;;;;;5061165;28;20020;-57
2022/06/02 09:20:48;;;;;;;6.53;4.10;;;;;;;;;;5063490;28;20036;-58
2022/06/02 09:23:35;;;;;;;6.30;4.25;;;;;;;;;;5063001;28;20021;-57
2022/06/02 09:26:18;;;;;;;8.25;4.10;;;;;;;;;;5060979;28;20648;-57
2022/06/02 09:29:05;;;;;;;5.38;4.32;;;;;;;;;;5066176;28;20024;-57
2022/06/02 09:31:49;;;;;;;5.78;3.72;;;;;;;;;;5065307;28;20024;-57
2022/06/02 09:34:33;;;;;;;7.13;3.92;;;;;;;;;;5065891;28;20359;-57
2022/06/02 09:37:36;;;;;;;5.97;4.03;;;;;;;;;;5059347;28;20040;-57
2022/06/02 09:40:15;;;;;;;4.65;3.30;;;;;;;;;;5064429;28;20032;-57
2022/06/02 09:43:12;;;;;;;5.80;4.07;;;;;;;;;;5064668;28;20302;-57
2022/06/02 09:45:59;;;;;;;8.25;4.13;;;;;;;;;;5066048;28;20359;-58
2022/06/02 09:48:27;;;;;;;7.57;3.90;;;;;;;;;;5061768;28;20096;-58
2022/06/02 09:51:14;;;;;;;5.47;3.60;;;;;;;;;;5055910;28;20070;-58
2022/06/02 09:54:06;;;;;;;8.35;4.45;;;;;;;;;;5070253;28;20028;-58
2022/06/02 09:56:50;;;;;;;8.40;4.22;;;;;;;;;;5066059;28;20082;-58
2022/06/02 09:59:26;;;;;;;12.30;5.93;;;;;;;;;;5070004;28;20103;-58
2022/06/02 10:02:10;;;;;;;32.65;11.20;;;;;;;;;;5065677;28;20414;-58
2022/06/02 10:05:14;;;;;;;8.57;4.50;;;;;;;;;;5067091;28;20020;-58
2022/06/02 10:07:48;;;;;;;5.13;3.75;;;;;;;;;;5067449;28;20028;-58
2022/06/02 10:10:34;;;;;;;4.85;3.72;;;;;;;;;;5062231;28;20021;-58
2022/06/02 10:13:22;;;;;;;4.43;3.65;;;;;;;;;;5061464;28;20060;-58
2022/06/02 10:15:47;;;;;;;4.40;4.00;;;;;;;;;;5062131;28;20025;-58
2022/06/02 10:18:25;;;;;;;9.45;3.67;;;;;;;;;;5066901;28;20457;-59
2022/06/02 10:21:00;;;;;;;4.32;3.58;;;;;;;;;;5067061;28;20029;-58
2022/06/02 10:23:46;;;;;;;6.60;4.53;;;;;;;;;;5062642;28;20067;-58
2022/06/02 10:26:15;;;;;;;7.47;3.65;;;;;;;;;;5065976;28;20038;-58
2022/06/02 10:28:59;;;;;;;5.30;3.53;;;;;;;;;;5070152;28;20495;-58
2022/06/02 10:31:48;;;;;;;7.32;4.05;;;;;;;;;;5068555;28;20024;-59
2022/06/02 10:34:25;;;;;;;5.43;3.47;;;;;;;;;;5065880;28;20040;-57
2022/06/02 10:37:11;;;;;;;6.38;3.80;;;;;;;;;;5064540;28;20104;-58
2022/06/02 10:39:42;;;;;;;4.05;3.38;;;;;;;;;;5064022;28;20116;-58
2022/06/02 10:42:25;;;;;;;5.10;3.80;;;;;;;;;;5064418;28;20127;-58
2022/06/02 10:45:17;;;;;;;4.22;3.60;;;;;;;;;;5063703;28;20024;-58
2022/06/02 10:48:05;;;;;;;6.70;3.80;;;;;;;;;;5065723;28;20030;-58
2022/06/02 10:51:01;;;;;;;8.77;3.78;;;;;;;;;;5065929;28;20040;-58
2022/06/02 10:53:52;;;;;;;6.90;4.18;;;;;;;;;;5066329;28;20626;-58
2022/06/02 10:56:37;;;;;;;5.53;3.67;;;;;;;;;;5062797;28;20040;-57
2022/06/02 10:59:03;;;;;;;9.00;3.78;;;;;;;;;;5067503;28;20111;-56
2022/06/02 11:02:18;;;;;;;8.82;3.67;;;;;;;;;;5061666;28;20437;-56
2022/06/02 11:05:17;;;;;;;3.83;3.25;;;;;;;;;;5053753;28;20476;-57
2022/06/02 11:08:03;;;;;;;6.40;3.38;;;;;;;;;;5064732;28;20135;-56
2022/06/02 11:10:31;;;;;;;3.50;3.00;;;;;;;;;;5072382;28;20119;-57
2022/06/02 11:13:21;;;;;;;6.78;3.60;;;;;;;;;;5062649;28;20025;-57
2022/06/02 11:15:55;;;;;;;6.93;3.35;;;;;;;;;;5064575;28;20013;-57
2022/06/02 11:19:14;;;;;;;4.57;3.28;;;;;;;;;;5070691;28;20028;-57
2022/06/02 11:22:10;;;;;;;5.53;3.20;;;;;;;;;;5069129;28;20032;-57
2022/06/02 11:24:41;;;;;;;7.35;3.20;;;;;;;;;;5063231;28;20036;-56
2022/06/02 11:27:36;;;;;;;6.22;2.97;;;;;;;;;;5071405;28;20344;-57
2022/06/02 11:30:23;;;;;;;5.05;3.00;;;;;;;;;;5071787;28;20075;-57
2022/06/02 11:32:59;;;;;;;5.85;2.80;;;;;;;;;;5069225;28;20024;-57
2022/06/02 11:36:10;;;;;;;5.40;3.05;;;;;;;;;;5068627;28;20035;-57
2022/06/02 11:38:44;;;;;;;6.00;2.85;;;;;;;;;;5067328;28;20028;-56
2022/06/02 11:41:40;;;;;;;6.07;2.88;;;;;;;;;;5066389;28;20056;-57
2022/06/02 11:44:30;;;;;;;4.80;2.92;;;;;;;;;;5065664;28;20371;-57
2022/06/02 11:47:16;;;;;;;4.90;2.70;;;;;;;;;;5064398;28;20134;-57
2022/06/02 11:50:05;;;;;;;3.20;2.90;;;;;;;;;;5067177;28;20101;-57
2022/06/02 11:52:30;;;;;;;4.47;3.00;;;;;;;;;;5064489;28;20463;-57
2022/06/02 11:55:20;;;;;;;6.38;4.40;;;;;;;;;;5067006;28;20124;-58
2022/06/02 11:57:49;;;;;;;3.78;2.72;;;;;;;;;;5065862;28;20411;-58
2022/06/02 12:00:41;;;;;;;4.63;2.80;;;;;;;;;;5059592;28;20409;-58
2022/06/02 12:03:31;;;;;;;3.53;2.60;;;;;;;;;;5061460;28;20047;-58
2022/06/02 12:06:11;;;;;;;4.10;2.80;;;;;;;;;;5061053;28;20089;-58
2022/06/02 12:08:54;;;;;;;6.57;3.47;;;;;;;;;;5063317;28;20063;-57
2022/06/02 12:11:38;;;;;;;5.82;2.88;;;;;;;;;;5067629;28;20499;-57
2022/06/02 12:14:25;;;;;;;5.03;3.10;;;;;;;;;;5060962;28;20506;-58
2022/06/02 12:17:13;;;;;;;4.35;3.30;;;;;;;;;;5065303;28;20056;-58
2022/06/02 12:19:57;;;;;;;;;;;;;;;;;;5059435;28;20082;-58
2022/06/02 12:22:31;;;;;;;6.60;3.28;;;;;;;;;;5062177;28;20007;-58
2022/06/02 12:24:56;;;;;;;4.80;2.97;;;;;;;;;;5060548;28;20162;-57
2022/06/02 12:27:50;;;;;;;3.70;2.75;;;;;;;;;;5071334;28;20107;-58
2022/06/02 12:30:21;;;;;;;4.07;2.88;;;;;;;;;;5065846;28;20036;-57
2022/06/02 12:33:13;;;;;;;4.82;2.90;;;;;;;;;;5065876;28;20073;-57
2022/06/02 12:35:57;;;;;;;6.50;3.13;;;;;;;;;;5064571;28;20031;-58
2022/06/02 12:38:34;;;;;;;5.88;3.05;;;;;;;;;;5067296;28;20024;-58
2022/06/02 12:41:17;;;;;;;9.80;3.17;;;;;;;;;;5069248;28;20556;-58
2022/06/02 12:44:04;;;;;;;5.53;3.10;;;;;;;;;;5064209;28;20025;-58
2022/06/02 12:46:41;;;;;;;14.60;3.92;;;;;;;;;;5066278;28;20028;-58
2022/06/02 12:49:09;;;;;;;3.38;2.90;;;;;;;;;;5063528;28;20118;-58
2022/06/02 12:51:54;;;;;;;4.72;3.00;;;;;;;;;;5063929;28;20333;-58
2022/06/02 12:54:41;;;;;;;5.03;2.85;;;;;;;;;;5063696;28;20047;-58
2022/06/02 12:57:30;;;;;;;2.90;2.60;;;;;;;;;;5062168;28;20024;-58
2022/06/02 13:00:33;;;;;;;3.38;2.55;;;;;;;;;;5054015;28;20028;-57
2022/06/02 13:03:23;;;;;;;8.32;2.97;;;;;;;;;;5057296;28;20172;-58
2022/06/02 13:06:18;;;;;;;3.92;2.90;;;;;;;;;;5063478;28;20588;-58
2022/06/02 13:09:08;;;;;;;3.67;2.47;;;;;;;;;;5057420;28;20024;-58
2022/06/02 13:11:36;;;;;;;7.43;2.92;;;;;;;;;;5061405;28;20070;-58
2022/06/02 13:14:15;;;;;;;5.30;2.92;;;;;;;;;;5065136;28;20058;-58
2022/06/02 13:16:52;;;;;;;3.03;2.70;;;;;;;;;;5058574;28;20487;-58
2022/06/02 13:19:43;;;;;;;6.65;4.05;;;;;;;;;;5059573;28;20110;-58
2022/06/02 13:22:28;;;;;;;3.00;2.70;;;;;;;;;;5062070;28;20094;-58
2022/06/02 13:25:24;;;;;;;6.20;2.83;;;;;;;;;;5052702;28;20066;-58
2022/06/02 13:27:57;;;;;;;4.13;2.40;;;;;;;;;;5068558;28;20048;-58
2022/06/02 13:30:28;;;;;;;6.63;2.72;;;;;;;;;;5064625;28;20077;-58
2022/06/02 13:33:16;;;;;;;4.43;3.10;;;;;;;;;;5059549;28;20103;-58
2022/06/02 13:35:44;;;;;;;3.25;2.70;;;;;;;;;;5065943;28;20074;-58
2022/06/02 13:38:21;;;;;;;4.00;3.03;;;;;;;;;;5067578;28;20029;-58
2022/06/02 13:40:59;;;;;;;5.82;2.70;;;;;;;;;;5064078;28;20362;-58
2022/06/02 13:43:49;;;;;;;3.97;2.55;;;;;;;;;;5067078;28;20024;-58
2022/06/02 13:46:36;;;;;;;5.32;2.85;;;;;;;;;;5060475;28;20063;-58
2022/06/02 13:49:23;;;;;;;6.03;2.80;;;;;;;;;;5060960;28;20028;-58
2022/06/02 13:52:09;;;;;;;4.95;3.10;;;;;;;;;;5065580;28;20044;-58
2022/06/02 13:58:07;;;;;;;3.15;2.88;;;;;;;;;;5063671;28;20090;-57
2022/06/02 14:01:03;;;;;;;4.97;2.80;;;;;;;;;;5060056;28;20472;-57
2022/06/02 14:04:06;;;;;;;3.97;3.03;;;;;;;;;;5060874;28;20492;-58
2022/06/02 14:06:41;;;;;;;3.42;2.92;;;;;;;;;;5060932;28;20090;-58
2022/06/02 14:09:17;;;;;;;6.28;3.20;;;;;;;;;;5064374;28;20056;-58
2022/06/02 14:12:01;;;;;;;3.50;3.20;;;;;;;;;;5057401;28;20507;-58
2022/06/02 14:14:56;;;;;;;5.20;2.83;;;;;;;;;;5064618;28;20139;-58
2022/06/02 14:17:45;;;;;;;4.35;3.10;;;;;;;;;;5065888;28;20096;-58
2022/06/02 14:20:19;;;;;;;6.65;3.25;;;;;;;;;;5061157;28;20551;-57
2022/06/02 14:23:07;;;;;;;3.83;3.17;;;;;;;;;;5059823;28;20033;-57
2022/06/02 14:26:12;;;;;;;4.22;2.80;;;;;;;;;;5065666;28;20109;-57
2022/06/02 14:28:37;;;;;;;4.65;3.17;;;;;;;;;;5066284;28;20082;-57
2022/06/02 14:31:40;;;;;;;7.75;3.17;;;;;;;;;;5066206;28;20028;-57
2022/06/02 14:34:17;;;;;;;6.53;3.28;;;;;;;;;;5057228;28;20039;-57
2022/06/02 14:36:59;;;;;;;7.05;3.75;;;;;;;;;;5067356;28;20024;-57
2022/06/02 14:40:00;;;;;;;6.57;3.67;;;;;;;;;;5067399;28;20117;-57
2022/06/02 14:45:48;;;;;;;5.90;3.72;;;;;;;;;;5063369;28;20048;-57
2022/06/02 14:48:49;;;;;;;6.63;4.18;;;;;;;;;;5064261;28;20563;-57
2022/06/02 14:51:21;;;;;;;4.15;3.60;;;;;;;;;;5068573;28;20037;-57
2022/06/02 14:54:04;;;;;;;6.53;3.90;;;;;;;;;;5070734;28;20082;-57
2022/06/02 14:57:06;;;;;;;4.38;3.20;;;;;;;;;;5072073;28;20103;-57
2022/06/02 14:59:54;;;;;;;6.20;3.40;;;;;;;;;;5062574;28;20033;-57
2022/06/02 15:02:38;;;;;;;7.22;3.25;;;;;;;;;;5068556;28;20024;-57
2022/06/02 15:05:15;;;;;;;5.60;3.40;;;;;;;;;;5060649;28;20031;-57
2022/06/02 15:07:56;;;;;;;5.95;3.38;;;;;;;;;;5063821;28;20020;-57
2022/06/02 15:10:40;;;;;;;5.53;3.47;;;;;;;;;;5067301;28;20040;-57
2022/06/02 15:13:48;;;;;;;6.65;4.18;;;;;;;;;;5062146;28;20061;-57
2022/06/02 15:16:31;;;;;;;6.15;4.55;;;;;;;;;;5064759;28;20126;-57
2022/06/02 15:19:33;;;;;;;7.63;3.80;;;;;;;;;;5062004;28;20051;-58
2022/06/02 15:22:32;;;;;;;4.63;3.40;;;;;;;;;;5065256;28;20021;-57
2022/06/02 15:25:09;;;;;;;6.63;3.83;;;;;;;;;;5067056;28;20286;-57
2022/06/02 15:27:47;;;;;;;4.78;3.88;;;;;;;;;;5068264;28;20044;-57
2022/06/02 15:30:34;;;;;;;4.68;4.03;;;;;;;;;;5067889;28;20031;-57
2022/06/02 15:33:36;;;;;;;4.90;4.25;;;;;;;;;;5059252;28;20272;-57
2022/06/02 15:36:39;;;;;;;5.70;4.70;;;;;;;;;;5066898;28;20024;-58
2022/06/02 15:39:34;;;;;;;6.30;4.13;;;;;;;;;;5032616;28;20041;-57
2022/06/02 15:42:15;;;;;;;29.30;4.60;;;;;;;;;;5070136;28;20114;-57
2022/06/02 15:45:07;;;;;;;7.75;3.70;;;;;;;;;;5063504;28;20037;-57
2022/06/02 15:48:03;;;;;;;6.00;3.80;;;;;;;;;;5064945;28;20113;-57
2022/06/02 15:50:46;;;;;;;8.68;4.05;;;;;;;;;;5064423;28;20111;-57
2022/06/02 15:53:39;;;;;;;5.45;3.88;;;;;;;;;;5069606;28;20055;-57
2022/06/02 15:56:26;;;;;;;5.88;3.65;;;;;;;;;;5059920;28;20480;-57
2022/06/02 15:59:12;;;;;;;6.10;3.70;;;;;;;;;;5061961;28;20024;-57
2022/06/02 16:02:11;;;;;;;6.65;3.80;;;;;;;;;;5067619;28;20077;-56
2022/06/02 16:04:51;;;;;;;;;;;;;;;;;;5068088;28;20040;-56
2022/06/02 16:07:29;;;;;;;6.63;4.05;;;;;;;;;;5065454;28;19966;-57
2022/06/02 16:13:03;;;;;;;6.05;4.07;;;;;;;;;;5061550;28;20477;-56
2022/06/02 16:15:41;;;;;;;8.63;3.65;;;;;;;;;;5068085;28;20036;-57
2022/06/02 16:18:31;;;;;;;6.10;4.13;;;;;;;;;;5066062;28;20059;-57
2022/06/02 16:21:09;;;;;;;6.45;3.55;;;;;;;;;;5060110;28;20153;-57
2022/06/02 16:23:57;;;;;;;5.95;4.10;;;;;;;;;;5067255;28;20038;-57
2022/06/02 16:26:41;;;;;;;5.22;3.67;;;;;;;;;;5070047;28;20127;-57
2022/06/02 16:29:16;;;;;;;5.43;4.07;;;;;;;;;;5070987;28;20511;-57
2022/06/02 16:32:06;;;;;;;4.68;3.75;;;;;;;;;;5068605;28;20131;-57
2022/06/02 16:34:46;;;;;;;6.30;4.75;;;;;;;;;;5065470;28;20025;-56
2022/06/02 16:37:23;;;;;;;5.88;4.20;;;;;;;;;;5063938;28;20033;-56
2022/06/02 16:40:08;;;;;;;6.15;4.43;;;;;;;;;;5066832;28;20020;-56